createdAt,value
2024-02-13T00:00:42.753Z,1007.02
2024-02-13T00:01:42.881Z,1007.14
2024-02-13T00:02:42.814Z,1007.11
2024-02-13T00:03:42.797Z,1007.15
2024-02-13T00:04:42.727Z,1007.16
2024-02-13T00:05:42.710Z,1007.20
2024-02-13T00:06:42.704Z,1007.21
2024-02-13T00:07:42.908Z,1007.20
2024-02-13T00:08:45.650Z,1007.23
2024-02-13T00:09:42.665Z,1007.22
2024-02-13T00:10:42.651Z,1007.27
2024-02-13T00:11:42.640Z,1007.29
2024-02-13T00:12:42.639Z,1007.28
2024-02-13T00:13:42.636Z,1007.29
2024-02-13T00:14:44.381Z,1007.34
2024-02-13T00:15:42.588Z,1007.34
2024-02-13T00:16:42.594Z,1007.32
2024-02-13T00:17:42.926Z,1007.33
2024-02-13T00:18:42.624Z,1007.36
2024-02-13T00:19:42.640Z,1007.37
2024-02-13T00:20:42.557Z,1007.38
2024-02-13T00:21:42.560Z,1007.44
2024-02-13T00:22:42.638Z,1007.48
2024-02-13T00:23:42.634Z,1007.46
2024-02-13T00:24:42.502Z,1007.46
2024-02-13T00:25:42.473Z,1007.49
2024-02-13T00:26:42.513Z,1007.51
2024-02-13T00:27:42.456Z,1007.52
2024-02-13T00:28:42.501Z,1007.50
2024-02-13T00:29:42.466Z,1007.50
2024-02-13T00:30:42.429Z,1007.50
2024-02-13T00:31:42.601Z,1007.51
2024-02-13T00:32:42.577Z,1007.52
2024-02-13T00:33:42.509Z,1007.52
2024-02-13T00:34:42.514Z,1007.56
2024-02-13T00:35:42.446Z,1007.56
2024-02-13T00:36:42.375Z,1007.53
2024-02-13T00:37:42.343Z,1007.60
2024-02-13T00:38:42.356Z,1007.60
2024-02-13T00:39:42.356Z,1007.60
2024-02-13T00:40:42.325Z,1007.61
2024-02-13T00:41:42.378Z,1007.62
2024-02-13T00:42:42.314Z,1007.64
2024-02-13T00:43:42.345Z,1007.68
2024-02-13T00:44:42.322Z,1007.69
2024-02-13T00:45:43.993Z,1007.68
2024-02-13T00:46:42.254Z,1007.65
2024-02-13T00:47:42.580Z,1007.67
2024-02-13T00:48:42.356Z,1007.69
2024-02-13T00:49:42.286Z,1007.68
2024-02-13T00:50:42.219Z,1007.76
2024-02-13T00:51:42.179Z,1007.77
2024-02-13T00:52:42.236Z,1007.78
2024-02-13T00:53:42.224Z,1007.81
2024-02-13T00:54:42.199Z,1007.77
2024-02-13T00:55:42.141Z,1007.85
2024-02-13T00:56:42.275Z,1007.85
2024-02-13T00:57:42.139Z,1007.88
2024-02-13T00:58:42.164Z,1007.89
2024-02-13T00:59:42.146Z,1007.91
2024-02-13T01:00:42.099Z,1007.91
2024-02-13T01:01:42.070Z,1007.92
2024-02-13T01:02:42.234Z,1007.92
2024-02-13T01:03:42.150Z,1007.92
2024-02-13T01:04:42.066Z,1007.95
2024-02-13T01:05:42.143Z,1007.99
2024-02-13T01:06:42.055Z,1007.99
2024-02-13T01:07:41.997Z,1007.99
2024-02-13T01:08:42.026Z,1008.02
2024-02-13T01:09:42.001Z,1008.02
2024-02-13T01:10:41.994Z,1008.04
2024-02-13T01:11:42.108Z,1008.07
2024-02-13T01:12:41.927Z,1008.04
2024-02-13T01:13:41.953Z,1008.09
2024-02-13T01:14:41.959Z,1008.10
2024-02-13T01:15:41.951Z,1008.10
2024-02-13T01:16:41.926Z,1008.11
2024-02-13T01:17:41.954Z,1008.16
2024-02-13T01:18:41.909Z,1008.14
2024-02-13T01:19:41.979Z,1008.14
2024-02-13T01:20:41.880Z,1008.13
2024-02-13T01:21:41.879Z,1008.14
2024-02-13T01:22:41.856Z,1008.15
2024-02-13T01:23:41.920Z,1008.17
2024-02-13T01:24:41.817Z,1008.21
2024-02-13T01:25:41.799Z,1008.16
2024-02-13T01:26:41.900Z,1008.23
2024-02-13T01:27:41.811Z,1008.24
2024-02-13T01:28:41.801Z,1008.28
2024-02-13T01:29:41.771Z,1008.33
2024-02-13T01:30:41.723Z,1008.31
2024-02-13T01:31:41.737Z,1008.32
2024-02-13T01:32:42.084Z,1008.33
2024-02-13T01:33:41.856Z,1008.36
2024-02-13T01:34:41.739Z,1008.34
2024-02-13T01:35:41.721Z,1008.34
2024-02-13T01:36:41.665Z,1008.37
2024-02-13T01:37:41.733Z,1008.38
2024-02-13T01:38:41.748Z,1008.40
2024-02-13T01:39:41.660Z,1008.41
2024-02-13T01:40:41.627Z,1008.43
2024-02-13T01:41:41.620Z,1008.40
2024-02-13T01:42:41.607Z,1008.41
2024-02-13T01:43:42.030Z,1008.43
2024-02-13T01:44:41.656Z,1008.44
2024-02-13T01:45:41.594Z,1008.46
2024-02-13T01:46:41.552Z,1008.49
2024-02-13T01:47:41.728Z,1008.47
2024-02-13T01:48:41.674Z,1008.49
2024-02-13T01:49:41.588Z,1008.49
2024-02-13T01:50:41.646Z,1008.50
2024-02-13T01:51:41.506Z,1008.50
2024-02-13T01:52:41.488Z,1008.47
2024-02-13T01:53:41.595Z,1008.52
2024-02-13T01:54:41.477Z,1008.52
2024-02-13T01:55:41.452Z,1008.53
2024-02-13T01:56:41.532Z,1008.55
2024-02-13T01:57:41.432Z,1008.54
2024-02-13T01:58:41.653Z,1008.59
2024-02-13T01:59:41.436Z,1008.58
2024-02-13T02:00:41.391Z,1008.59
2024-02-13T02:01:41.386Z,1008.62
2024-02-13T02:02:41.414Z,1008.60
2024-02-13T02:03:41.436Z,1008.62
2024-02-13T02:04:41.352Z,1008.62
2024-02-13T02:05:41.444Z,1008.62
2024-02-13T02:06:41.357Z,1008.62
2024-02-13T02:07:41.350Z,1008.63
2024-02-13T02:08:41.384Z,1008.66
2024-02-13T02:09:41.313Z,1008.68
2024-02-13T02:10:41.276Z,1008.67
2024-02-13T02:11:41.348Z,1008.68
2024-02-13T02:12:41.254Z,1008.70
2024-02-13T02:13:41.347Z,1008.72
2024-02-13T02:14:41.224Z,1008.76
2024-02-13T02:15:41.222Z,1008.78
2024-02-13T02:16:41.221Z,1008.77
2024-02-13T02:17:41.410Z,1008.79
2024-02-13T02:18:41.315Z,1008.76
2024-02-13T02:19:41.230Z,1008.78
2024-02-13T02:20:41.192Z,1008.81
2024-02-13T02:21:41.219Z,1008.82
2024-02-13T02:22:41.144Z,1008.86
2024-02-13T02:23:41.168Z,1008.87
2024-02-13T02:24:41.144Z,1008.87
2024-02-13T02:25:41.112Z,1008.90
2024-02-13T02:26:41.156Z,1008.89
2024-02-13T02:27:41.096Z,1008.89
2024-02-13T02:28:41.089Z,1008.94
2024-02-13T02:29:41.115Z,1008.93
2024-02-13T02:30:41.044Z,1008.91
2024-02-13T02:31:41.088Z,1008.91
2024-02-13T02:32:41.088Z,1008.95
2024-02-13T02:33:41.045Z,1008.96
2024-02-13T02:34:41.095Z,1008.99
2024-02-13T02:35:41.037Z,1009.01
2024-02-13T02:36:40.973Z,1009.04
2024-02-13T02:37:40.996Z,1009.04
2024-02-13T02:38:41.028Z,1009.06
2024-02-13T02:39:40.955Z,1009.05
2024-02-13T02:40:40.960Z,1009.07
2024-02-13T02:41:40.944Z,1009.07
2024-02-13T02:42:40.910Z,1009.08
2024-02-13T02:43:40.947Z,1009.10
2024-02-13T02:44:40.901Z,1009.11
2024-02-13T02:45:40.911Z,1009.09
2024-02-13T02:46:40.913Z,1009.12
2024-02-13T02:47:40.984Z,1009.11
2024-02-13T02:48:40.911Z,1009.13
2024-02-13T02:49:40.888Z,1009.14
2024-02-13T02:50:41.577Z,1009.20
2024-02-13T02:51:40.857Z,1009.19
2024-02-13T02:52:40.813Z,1009.23
2024-02-13T02:53:40.842Z,1009.25
2024-02-13T02:54:40.775Z,1009.26
2024-02-13T02:55:40.811Z,1009.30
2024-02-13T02:56:40.868Z,1009.33
2024-02-13T02:57:40.748Z,1009.36
2024-02-13T02:58:40.729Z,1009.41
2024-02-13T02:59:40.767Z,1009.42
2024-02-13T03:00:40.744Z,1009.45
2024-02-13T03:01:40.729Z,1009.45
2024-02-13T03:02:40.700Z,1009.50
2024-02-13T03:03:40.729Z,1009.52
2024-02-13T03:04:40.686Z,1009.55
2024-02-13T03:05:40.713Z,1009.55
2024-02-13T03:06:40.744Z,1009.54
2024-02-13T03:07:40.678Z,1009.57
2024-02-13T03:08:40.659Z,1009.57
2024-02-13T03:09:40.631Z,1009.57
2024-02-13T03:10:40.622Z,1009.60
2024-02-13T03:11:40.625Z,1009.59
2024-02-13T03:12:40.571Z,1009.61
2024-02-13T03:13:40.593Z,1009.62
2024-02-13T03:14:40.560Z,1009.65
2024-02-13T03:15:40.571Z,1009.65
2024-02-13T03:16:40.533Z,1009.66
2024-02-13T03:17:40.581Z,1009.67
2024-02-13T03:18:40.633Z,1009.68
2024-02-13T03:19:40.572Z,1009.69
2024-02-13T03:20:40.508Z,1009.71
2024-02-13T03:21:40.477Z,1009.71
2024-02-13T03:22:40.579Z,1009.75
2024-02-13T03:23:40.494Z,1009.77
2024-02-13T03:24:40.450Z,1009.77
2024-02-13T03:25:40.426Z,1009.79
2024-02-13T03:26:40.509Z,1009.82
2024-02-13T03:27:40.407Z,1009.82
2024-02-13T03:28:40.424Z,1009.83
2024-02-13T03:29:40.506Z,1009.86
2024-02-13T03:30:40.397Z,1009.87
2024-02-13T03:31:40.372Z,1009.88
2024-02-13T03:32:40.474Z,1009.89
2024-02-13T03:33:40.493Z,1009.91
2024-02-13T03:34:40.378Z,1009.93
2024-02-13T03:35:40.483Z,1009.94
2024-02-13T03:36:40.298Z,1009.95
2024-02-13T03:37:40.293Z,1009.96
2024-02-13T03:38:41.041Z,1009.97
2024-02-13T03:39:40.273Z,1010.01
2024-02-13T03:40:40.289Z,1010.04
2024-02-13T03:41:40.270Z,1010.07
2024-02-13T03:42:40.225Z,1010.09
2024-02-13T03:43:40.243Z,1010.09
2024-02-13T03:44:40.237Z,1010.10
2024-02-13T03:45:40.252Z,1010.12
2024-02-13T03:46:40.184Z,1010.14
2024-02-13T03:47:40.247Z,1010.15
2024-02-13T03:48:40.268Z,1010.17
2024-02-13T03:49:40.295Z,1010.20
2024-02-13T03:50:40.180Z,1010.21
2024-02-13T03:51:40.134Z,1010.23
2024-02-13T03:52:40.101Z,1010.24
2024-02-13T03:53:40.162Z,1010.27
2024-02-13T03:54:40.089Z,1010.27
2024-02-13T03:55:40.095Z,1010.32
2024-02-13T03:56:40.106Z,1010.34
2024-02-13T03:57:40.076Z,1010.37
2024-02-13T03:58:40.092Z,1010.38
2024-02-13T03:59:40.208Z,1010.36
2024-02-13T04:00:40.142Z,1010.41
2024-02-13T04:01:40.055Z,1010.43
2024-02-13T04:02:40.080Z,1010.47
2024-02-13T04:03:40.034Z,1010.49
2024-02-13T04:04:40.056Z,1010.50
2024-02-13T04:05:40.196Z,1010.53
2024-02-13T04:06:39.974Z,1010.53
2024-02-13T04:07:39.971Z,1010.54
2024-02-13T04:08:39.995Z,1010.57
2024-02-13T04:09:39.933Z,1010.59
2024-02-13T04:10:39.909Z,1010.62
2024-02-13T04:11:39.993Z,1010.60
2024-02-13T04:12:39.895Z,1010.62
2024-02-13T04:13:39.911Z,1010.64
2024-02-13T04:14:39.930Z,1010.64
2024-02-13T04:15:39.860Z,1010.66
2024-02-13T04:16:39.839Z,1010.68
2024-02-13T04:17:39.918Z,1010.71
2024-02-13T04:18:39.919Z,1010.69
2024-02-13T04:19:39.903Z,1010.69
2024-02-13T04:20:39.885Z,1010.72
2024-02-13T04:21:39.817Z,1010.71
2024-02-13T04:22:39.788Z,1010.74
2024-02-13T04:23:39.827Z,1010.73
2024-02-13T04:24:39.764Z,1010.70
2024-02-13T04:25:39.740Z,1010.70
2024-02-13T04:26:39.797Z,1010.72
2024-02-13T04:27:39.723Z,1010.72
2024-02-13T04:28:39.744Z,1010.73
2024-02-13T04:29:39.724Z,1010.74
2024-02-13T04:30:39.679Z,1010.76
2024-02-13T04:31:40.049Z,1010.76
2024-02-13T04:32:39.848Z,1010.81
2024-02-13T04:33:39.769Z,1010.80
2024-02-13T04:34:39.673Z,1010.82
2024-02-13T04:35:39.756Z,1010.82
2024-02-13T04:36:39.637Z,1010.83
2024-02-13T04:37:39.628Z,1010.82
2024-02-13T04:38:39.649Z,1010.81
2024-02-13T04:39:39.588Z,1010.81
2024-02-13T04:40:39.571Z,1010.83
2024-02-13T04:41:39.660Z,1010.86
2024-02-13T04:42:39.541Z,1010.87
2024-02-13T04:43:39.545Z,1010.89
2024-02-13T04:44:39.569Z,1010.91
2024-02-13T04:45:39.532Z,1010.93
2024-02-13T04:46:39.517Z,1010.98
2024-02-13T04:47:39.718Z,1011.00
2024-02-13T04:48:39.573Z,1011.02
2024-02-13T04:49:39.498Z,1011.04
2024-02-13T04:50:39.512Z,1011.04
2024-02-13T04:51:39.460Z,1011.05
2024-02-13T04:52:39.433Z,1011.04
2024-02-13T04:53:39.451Z,1011.04
2024-02-13T04:54:39.439Z,1011.04
2024-02-13T04:55:39.462Z,1011.03
2024-02-13T04:56:39.430Z,1011.01
2024-02-13T04:57:39.390Z,1011.00
2024-02-13T04:58:39.370Z,1011.01
2024-02-13T04:59:39.428Z,1011.03
2024-02-13T05:00:39.440Z,1011.03
2024-02-13T05:01:39.342Z,1011.02
2024-02-13T05:02:39.360Z,1011.02
2024-02-13T05:03:39.309Z,1011.03
2024-02-13T05:04:39.397Z,1011.02
2024-02-13T05:05:39.427Z,1011.04
2024-02-13T05:06:39.346Z,1011.04
2024-02-13T05:07:39.287Z,1011.05
2024-02-13T05:08:39.274Z,1011.04
2024-02-13T05:09:39.279Z,1011.07
2024-02-13T05:10:39.253Z,1011.07
2024-02-13T05:11:39.262Z,1011.08
2024-02-13T05:12:39.222Z,1011.09
2024-02-13T05:13:39.201Z,1011.10
2024-02-13T05:14:39.283Z,1011.09
2024-02-13T05:15:39.228Z,1011.11
2024-02-13T05:16:39.241Z,1011.12
2024-02-13T05:17:39.238Z,1011.14
2024-02-13T05:18:39.223Z,1011.16
2024-02-13T05:19:39.164Z,1011.17
2024-02-13T05:20:39.941Z,1011.20
2024-02-13T05:21:39.121Z,1011.21
2024-02-13T05:22:39.095Z,1011.24
2024-02-13T05:23:39.103Z,1011.22
2024-02-13T05:24:39.107Z,1011.27
2024-02-13T05:25:39.081Z,1011.27
2024-02-13T05:26:39.241Z,1011.28
2024-02-13T05:27:39.050Z,1011.29
2024-02-13T05:28:39.065Z,1011.29
2024-02-13T05:29:39.111Z,1011.30
2024-02-13T05:30:39.046Z,1011.32
2024-02-13T05:31:39.023Z,1011.32
2024-02-13T05:32:39.067Z,1011.33
2024-02-13T05:33:39.110Z,1011.34
2024-02-13T05:34:39.024Z,1011.36
2024-02-13T05:35:38.999Z,1011.37
2024-02-13T05:36:38.982Z,1011.38
2024-02-13T05:37:38.994Z,1011.42
2024-02-13T05:38:39.061Z,1011.42
2024-02-13T05:39:38.918Z,1011.41
2024-02-13T05:40:38.905Z,1011.42
2024-02-13T05:41:38.954Z,1011.44
2024-02-13T05:42:38.890Z,1011.46
2024-02-13T05:43:38.860Z,1011.47
2024-02-13T05:44:38.890Z,1011.48
2024-02-13T05:45:38.997Z,1011.46
2024-02-13T05:46:38.839Z,1011.46
2024-02-13T05:47:38.964Z,1011.47
2024-02-13T05:48:38.875Z,1011.47
2024-02-13T05:49:38.814Z,1011.49
2024-02-13T05:50:38.856Z,1011.52
2024-02-13T05:51:38.802Z,1011.54
2024-02-13T05:52:38.784Z,1011.56
2024-02-13T05:53:38.814Z,1011.56
2024-02-13T05:54:40.772Z,1011.58
2024-02-13T05:55:38.723Z,1011.57
2024-02-13T05:56:38.787Z,1011.57
2024-02-13T05:57:38.702Z,1011.60
2024-02-13T05:58:38.700Z,1011.59
2024-02-13T05:59:38.734Z,1011.61
2024-02-13T06:00:38.802Z,1011.61
2024-02-13T06:01:38.729Z,1011.60
2024-02-13T06:02:38.720Z,1011.64
2024-02-13T06:03:38.797Z,1011.67
2024-02-13T06:04:38.717Z,1011.70
2024-02-13T06:05:38.714Z,1011.69
2024-02-13T06:06:38.975Z,1011.71
2024-02-13T06:07:38.633Z,1011.70
2024-02-13T06:08:38.673Z,1011.74
2024-02-13T06:09:38.568Z,1011.73
2024-02-13T06:10:38.602Z,1011.73
2024-02-13T06:11:38.665Z,1011.73
2024-02-13T06:12:38.565Z,1011.75
2024-02-13T06:13:38.544Z,1011.78
2024-02-13T06:14:38.558Z,1011.79
2024-02-13T06:15:38.502Z,1011.80
2024-02-13T06:16:38.518Z,1011.82
2024-02-13T06:17:38.598Z,1011.83
2024-02-13T06:18:38.606Z,1011.88
2024-02-13T06:19:38.493Z,1011.92
2024-02-13T06:20:38.490Z,1011.88
2024-02-13T06:21:38.444Z,1011.90
2024-02-13T06:22:38.439Z,1011.85
2024-02-13T06:23:38.603Z,1011.88
2024-02-13T06:24:38.404Z,1011.90
2024-02-13T06:25:38.373Z,1011.94
2024-02-13T06:26:38.440Z,1011.93
2024-02-13T06:27:38.372Z,1011.90
2024-02-13T06:28:38.419Z,1011.95
2024-02-13T06:29:38.364Z,1011.94
2024-02-13T06:30:38.348Z,1011.99
2024-02-13T06:31:38.326Z,1011.99
2024-02-13T06:32:38.531Z,1011.99
2024-02-13T06:33:38.421Z,1011.99
2024-02-13T06:34:38.374Z,1012.04
2024-02-13T06:35:38.298Z,1012.12
2024-02-13T06:36:38.301Z,1012.08
2024-02-13T06:37:38.248Z,1012.16
2024-02-13T06:38:38.338Z,1012.11
2024-02-13T06:39:38.241Z,1012.15
2024-02-13T06:40:38.238Z,1012.17
2024-02-13T06:41:38.353Z,1012.11
2024-02-13T06:42:38.229Z,1012.15
2024-02-13T06:43:38.222Z,1012.11
2024-02-13T06:44:38.240Z,1012.14
2024-02-13T06:45:38.183Z,1012.15
2024-02-13T06:46:38.158Z,1012.16
2024-02-13T06:47:38.602Z,1012.19
2024-02-13T06:48:39.678Z,1012.23
2024-02-13T06:49:38.184Z,1012.24
2024-02-13T06:50:38.146Z,1012.24
2024-02-13T06:51:38.096Z,1012.25
2024-02-13T06:52:38.202Z,1012.25
2024-02-13T06:53:38.134Z,1012.26
2024-02-13T06:54:38.082Z,1012.28
2024-02-13T06:55:38.074Z,1012.30
2024-02-13T06:56:38.060Z,1012.30
2024-02-13T06:57:38.045Z,1012.31
2024-02-13T06:58:38.022Z,1012.32
2024-02-13T06:59:38.085Z,1012.35
2024-02-13T07:00:38.041Z,1012.36
2024-02-13T07:01:37.971Z,1012.42
2024-02-13T07:02:38.329Z,1012.39
2024-02-13T07:03:38.170Z,1012.44
2024-02-13T07:04:37.973Z,1012.46
2024-02-13T07:05:37.961Z,1012.50
2024-02-13T07:06:48.382Z,1012.49
2024-02-13T07:07:45.956Z,1012.48
2024-02-13T07:08:38.199Z,1012.51
2024-02-13T07:09:38.064Z,1012.54
2024-02-13T07:10:37.923Z,1012.57
2024-02-13T07:11:37.912Z,1012.57
2024-02-13T07:12:37.854Z,1012.59
2024-02-13T07:13:37.836Z,1012.59
2024-02-13T07:14:37.896Z,1012.59
2024-02-13T07:15:38.173Z,1012.62
2024-02-13T07:16:40.959Z,1012.64
2024-02-13T07:17:48.841Z,1012.64
2024-02-13T07:18:37.937Z,1012.62
2024-02-13T07:19:37.937Z,1012.63
2024-02-13T07:20:37.826Z,1012.63
2024-02-13T07:21:37.760Z,1012.64
2024-02-13T07:22:37.815Z,1012.65
2024-02-13T07:23:37.937Z,1012.63
2024-02-13T07:24:37.732Z,1012.65
2024-02-13T07:25:37.702Z,1012.70
2024-02-13T07:26:37.753Z,1012.68
2024-02-13T07:27:37.692Z,1012.70
2024-02-13T07:28:37.713Z,1012.70
2024-02-13T07:29:38.626Z,1012.72
2024-02-13T07:30:37.693Z,1012.72
2024-02-13T07:31:37.646Z,1012.74
2024-02-13T07:32:37.722Z,1012.75
2024-02-13T07:33:37.900Z,1012.75
2024-02-13T07:34:37.664Z,1012.76
2024-02-13T07:35:37.615Z,1012.77
2024-02-13T07:36:37.630Z,1012.77
2024-02-13T07:37:37.571Z,1012.78
2024-02-13T07:38:37.671Z,1012.80
2024-02-13T07:39:37.553Z,1012.81
2024-02-13T07:40:37.561Z,1012.84
2024-02-13T07:41:37.547Z,1012.86
2024-02-13T07:42:37.533Z,1012.86
2024-02-13T07:43:37.541Z,1012.88
2024-02-13T07:44:37.743Z,1012.88
2024-02-13T07:45:37.477Z,1012.89
2024-02-13T07:46:37.471Z,1012.90
2024-02-13T07:47:37.588Z,1012.92
2024-02-13T07:48:37.638Z,1012.95
2024-02-13T07:49:37.565Z,1012.94
2024-02-13T07:50:37.460Z,1012.94
2024-02-13T07:51:37.403Z,1012.94
2024-02-13T07:52:37.409Z,1012.96
2024-02-13T07:53:37.442Z,1012.93
2024-02-13T07:54:37.440Z,1012.96
2024-02-13T07:55:37.388Z,1012.94
2024-02-13T07:56:37.364Z,1012.92
2024-02-13T07:57:37.346Z,1012.94
2024-02-13T07:58:37.376Z,1012.96
2024-02-13T07:59:37.387Z,1012.96
2024-02-13T08:00:37.533Z,1012.97
2024-02-13T08:01:37.282Z,1012.95
2024-02-13T08:02:37.402Z,1012.99
2024-02-13T08:03:37.296Z,1012.98
2024-02-13T08:04:37.368Z,1012.99
2024-02-13T08:05:37.310Z,1012.97
2024-02-13T08:06:37.327Z,1013.00
2024-02-13T08:07:37.227Z,1012.98
2024-02-13T08:08:37.334Z,1013.03
2024-02-13T08:09:37.266Z,1013.03
2024-02-13T08:10:37.200Z,1013.07
2024-02-13T08:11:37.213Z,1013.06
2024-02-13T08:12:37.203Z,1013.09
2024-02-13T08:13:37.185Z,1013.10
2024-02-13T08:14:37.267Z,1013.11
2024-02-13T08:15:37.139Z,1013.19
2024-02-13T08:16:37.579Z,1013.10
2024-02-13T08:17:37.291Z,1013.10
2024-02-13T08:18:37.146Z,1013.11
2024-02-13T08:19:37.205Z,1013.08
2024-02-13T08:20:37.181Z,1013.11
2024-02-13T08:21:37.092Z,1013.11
2024-02-13T08:22:37.134Z,1013.15
2024-02-13T08:23:37.089Z,1013.14
2024-02-13T08:24:37.282Z,1013.12
2024-02-13T08:25:37.021Z,1013.15
2024-02-13T08:26:37.058Z,1013.12
2024-02-13T08:27:37.026Z,1013.13
2024-02-13T08:28:37.046Z,1013.15
2024-02-13T08:29:37.023Z,1013.12
2024-02-13T08:30:37.006Z,1013.16
2024-02-13T08:31:36.972Z,1013.16
2024-02-13T08:32:37.070Z,1013.17
2024-02-13T08:33:37.155Z,1013.14
2024-02-13T08:34:37.163Z,1013.14
2024-02-13T08:35:37.093Z,1013.13
2024-02-13T08:36:36.922Z,1013.14
2024-02-13T08:37:36.910Z,1013.18
2024-02-13T08:38:36.917Z,1013.18
2024-02-13T08:39:36.879Z,1013.15
2024-02-13T08:40:36.927Z,1013.17
2024-02-13T08:41:36.879Z,1013.18
2024-02-13T08:42:36.864Z,1013.20
2024-02-13T08:43:36.837Z,1013.22
2024-02-13T08:44:36.858Z,1013.26
2024-02-13T08:45:36.915Z,1013.25
2024-02-13T08:46:36.845Z,1013.31
2024-02-13T08:47:36.870Z,1013.25
2024-02-13T08:48:37.006Z,1013.28
2024-02-13T08:49:36.917Z,1013.27
2024-02-13T08:50:36.901Z,1013.24
2024-02-13T08:51:38.438Z,1013.28
2024-02-13T08:52:36.739Z,1013.29
2024-02-13T08:53:36.861Z,1013.29
2024-02-13T08:54:36.724Z,1013.28
2024-02-13T08:55:36.735Z,1013.27
2024-02-13T08:56:36.722Z,1013.32
2024-02-13T08:57:36.700Z,1013.34
2024-02-13T08:58:36.693Z,1013.35
2024-02-13T08:59:36.685Z,1013.33
2024-02-13T09:00:36.719Z,1013.34
2024-02-13T09:01:36.784Z,1013.35
2024-02-13T09:02:36.673Z,1013.34
2024-02-13T09:03:36.600Z,1013.37
2024-02-13T09:04:36.713Z,1013.36
2024-02-13T09:05:36.634Z,1013.39
2024-02-13T09:06:36.846Z,1013.35
2024-02-13T09:07:36.561Z,1013.35
2024-02-13T09:08:36.659Z,1013.37
2024-02-13T09:09:36.569Z,1013.40
2024-02-13T09:10:36.594Z,1013.34
2024-02-13T09:11:36.545Z,1013.31
2024-02-13T09:12:36.528Z,1013.35
2024-02-13T09:13:36.476Z,1013.32
2024-02-13T09:14:36.664Z,1013.32
2024-02-13T09:15:36.500Z,1013.32
2024-02-13T09:16:36.455Z,1013.36
2024-02-13T09:17:36.521Z,1013.34
2024-02-13T09:18:36.525Z,1013.36
2024-02-13T09:19:36.464Z,1013.38
2024-02-13T09:20:36.480Z,1013.32
2024-02-13T09:21:36.415Z,1013.39
2024-02-13T09:22:36.389Z,1013.41
2024-02-13T09:23:36.531Z,1013.41
2024-02-13T09:24:36.452Z,1013.42
2024-02-13T09:25:36.353Z,1013.40
2024-02-13T09:26:36.373Z,1013.45
2024-02-13T09:27:36.327Z,1013.48
2024-02-13T09:28:36.343Z,1013.50
2024-02-13T09:29:36.324Z,1013.51
2024-02-13T09:30:36.301Z,1013.55
2024-02-13T09:31:36.271Z,1013.55
2024-02-13T09:32:36.422Z,1013.61
2024-02-13T09:33:36.454Z,1013.61
2024-02-13T09:34:36.302Z,1013.61
2024-02-13T09:35:36.259Z,1013.61
2024-02-13T09:36:36.226Z,1013.61
2024-02-13T09:37:36.244Z,1013.62
2024-02-13T09:38:36.278Z,1013.65
2024-02-13T09:39:36.225Z,1013.62
2024-02-13T09:40:36.173Z,1013.66
2024-02-13T09:41:36.207Z,1013.67
2024-02-13T09:42:36.167Z,1013.72
2024-02-13T09:43:38.719Z,1013.74
2024-02-13T09:44:36.170Z,1013.71
2024-02-13T09:45:36.142Z,1013.70
2024-02-13T09:46:36.105Z,1013.71
2024-02-13T09:47:36.186Z,1013.75
2024-02-13T09:48:36.344Z,1013.75
2024-02-13T09:49:36.190Z,1013.76
2024-02-13T09:50:36.115Z,1013.75
2024-02-13T09:51:36.074Z,1013.75
2024-02-13T09:52:36.052Z,1013.77
2024-02-13T09:53:36.097Z,1013.78
2024-02-13T09:54:36.024Z,1013.80
2024-02-13T09:55:36.012Z,1013.77
2024-02-13T09:56:36.063Z,1013.79
2024-02-13T09:57:36.013Z,1013.79
2024-02-13T09:58:35.997Z,1013.81
2024-02-13T09:59:36.059Z,1013.82
2024-02-13T10:00:35.992Z,1013.81
2024-02-13T10:01:35.955Z,1013.81
2024-02-13T10:02:36.004Z,1013.83
2024-02-13T10:03:35.940Z,1013.84
2024-02-13T10:04:36.645Z,1013.85
2024-02-13T10:05:35.924Z,1013.91
2024-02-13T10:06:35.952Z,1013.91
2024-02-13T10:07:38.808Z,1013.87
2024-02-13T10:08:35.896Z,1013.88
2024-02-13T10:09:35.897Z,1013.91
2024-02-13T10:10:35.826Z,1013.92
2024-02-13T10:11:35.874Z,1013.96
2024-02-13T10:12:35.876Z,1013.98
2024-02-13T10:13:35.822Z,1013.91
2024-02-13T10:14:35.810Z,1013.93
2024-02-13T10:15:35.780Z,1013.91
2024-02-13T10:16:35.792Z,1013.94
2024-02-13T10:17:36.490Z,1013.93
2024-02-13T10:18:35.893Z,1013.94
2024-02-13T10:19:37.858Z,1013.93
2024-02-13T10:20:35.787Z,1014.00
2024-02-13T10:21:35.753Z,1013.99
2024-02-13T10:22:35.702Z,1013.98
2024-02-13T10:23:35.788Z,1014.00
2024-02-13T10:24:35.850Z,1014.00
2024-02-13T10:25:35.679Z,1014.00
2024-02-13T10:26:35.788Z,1014.03
2024-02-13T10:27:35.732Z,1014.01
2024-02-13T10:28:35.693Z,1014.02
2024-02-13T10:29:35.720Z,1014.06
2024-02-13T10:30:35.633Z,1014.07
2024-02-13T10:31:35.645Z,1014.10
2024-02-13T10:32:35.665Z,1014.09
2024-02-13T10:33:35.658Z,1014.05
2024-02-13T10:34:35.602Z,1014.05
2024-02-13T10:35:35.702Z,1014.07
2024-02-13T10:36:35.621Z,1014.07
2024-02-13T10:37:35.543Z,1014.08
2024-02-13T10:38:35.562Z,1014.10
2024-02-13T10:39:35.557Z,1014.14
2024-02-13T10:40:35.571Z,1014.15
2024-02-13T10:41:35.546Z,1014.13
2024-02-13T10:42:35.494Z,1014.11
2024-02-13T10:43:35.582Z,1014.10
2024-02-13T10:44:35.548Z,1014.08
2024-02-13T10:45:35.457Z,1014.10
2024-02-13T10:46:35.436Z,1014.10
2024-02-13T10:47:35.464Z,1014.09
2024-02-13T10:48:35.663Z,1014.08
2024-02-13T10:49:35.446Z,1014.09
2024-02-13T10:50:35.476Z,1014.08
2024-02-13T10:51:35.397Z,1014.12
2024-02-13T10:52:35.361Z,1014.13
2024-02-13T10:53:35.399Z,1014.12
2024-02-13T10:54:35.344Z,1014.16
2024-02-13T10:55:35.370Z,1014.16
2024-02-13T10:56:35.347Z,1014.20
2024-02-13T10:57:35.306Z,1014.22
2024-02-13T10:58:35.415Z,1014.19
2024-02-13T10:59:35.326Z,1014.20
2024-02-13T11:00:35.433Z,1014.19
2024-02-13T11:01:35.374Z,1014.21
2024-02-13T11:02:35.297Z,1014.21
2024-02-13T11:03:35.258Z,1014.19
2024-02-13T11:04:35.232Z,1014.19
2024-02-13T11:05:35.288Z,1014.15
2024-02-13T11:06:35.335Z,1014.17
2024-02-13T11:07:35.234Z,1014.18
2024-02-13T11:08:35.200Z,1014.18
2024-02-13T11:09:35.182Z,1014.17
2024-02-13T11:10:35.183Z,1014.18
2024-02-13T11:11:35.188Z,1014.21
2024-02-13T11:12:35.140Z,1014.23
2024-02-13T11:13:35.135Z,1014.25
2024-02-13T11:14:35.197Z,1014.24
2024-02-13T11:15:35.122Z,1014.27
2024-02-13T11:16:35.095Z,1014.23
2024-02-13T11:17:35.147Z,1014.20
2024-02-13T11:18:35.132Z,1014.22
2024-02-13T11:19:35.136Z,1014.20
2024-02-13T11:20:35.211Z,1014.15
2024-02-13T11:21:35.040Z,1014.19
2024-02-13T11:22:35.021Z,1014.16
2024-02-13T11:23:35.210Z,1014.10
2024-02-13T11:24:35.057Z,1014.11
2024-02-13T11:25:35.021Z,1014.11
2024-02-13T11:26:35.619Z,1014.12
2024-02-13T11:27:35.030Z,1014.14
2024-02-13T11:28:34.969Z,1014.09
2024-02-13T11:29:35.117Z,1014.13
2024-02-13T11:30:34.982Z,1014.11
2024-02-13T11:31:34.952Z,1014.10
2024-02-13T11:32:35.121Z,1014.11
2024-02-13T11:33:35.049Z,1014.14
2024-02-13T11:34:35.979Z,1014.14
2024-02-13T11:35:34.967Z,1014.10
2024-02-13T11:36:35.089Z,1014.13
2024-02-13T11:37:34.863Z,1014.13
2024-02-13T11:38:34.863Z,1014.12
2024-02-13T11:39:34.846Z,1014.12
2024-02-13T11:40:34.818Z,1014.11
2024-02-13T11:41:34.918Z,1014.14
2024-02-13T11:42:35.002Z,1014.13
2024-02-13T11:43:34.794Z,1014.14
2024-02-13T11:44:34.801Z,1014.12
2024-02-13T11:45:34.783Z,1014.19
2024-02-13T11:46:34.736Z,1014.14
2024-02-13T11:47:35.047Z,1014.14
2024-02-13T11:48:35.711Z,1014.12
2024-02-13T11:49:34.848Z,1014.09
2024-02-13T11:50:34.801Z,1014.11
2024-02-13T11:51:34.774Z,1014.15
2024-02-13T11:52:34.712Z,1014.15
2024-02-13T11:53:34.781Z,1014.21
2024-02-13T11:54:34.658Z,1014.15
2024-02-13T11:55:34.669Z,1014.13
2024-02-13T11:56:34.671Z,1014.12
2024-02-13T11:57:34.666Z,1014.13
2024-02-13T11:58:34.607Z,1014.11
2024-02-13T11:59:34.642Z,1014.14
2024-02-13T12:00:34.601Z,1014.12
2024-02-13T12:01:34.582Z,1014.11
2024-02-13T12:02:34.898Z,1014.13
2024-02-13T12:03:34.564Z,1014.10
2024-02-13T12:04:34.585Z,1014.15
2024-02-13T12:05:34.595Z,1014.11